Time;durP1;ratioP1;P1;durP2;ratioP2;P2;SDS_P1;SDS_P2;PMS_P1;PMS_P2;Temp;Humidity;BMP_temperature;BMP_pressure;BME280_temperature;BME280_humidity;BME280_pressure;Samples;Min_cycle;Max_cycle;Signal;HPM_P1;HPM_P2
2022/07/19 00:02:13;;;;;;;7.47;3.50;;;12.50;99.90;;;;;;4422805;28;657632;-66
2022/07/19 00:05:01;;;;;;;10.43;3.63;;;12.50;99.90;;;;;;4402454;28;656260;-66
2022/07/19 00:07:48;;;;;;;8.47;3.53;;;12.50;99.90;;;;;;4421981;28;658752;-66
2022/07/19 00:10:35;;;;;;;11.65;3.60;;;12.40;99.90;;;;;;4401534;28;656486;-66
2022/07/19 00:13:22;;;;;;;5.57;3.40;;;12.50;99.90;;;;;;4425310;28;658328;-66
2022/07/19 00:16:09;;;;;;;7.70;3.57;;;12.60;99.90;;;;;;4409251;28;657164;-66
2022/07/19 00:18:58;;;;;;;6.53;3.53;;;12.70;99.90;;;;;;4398293;28;656436;-66
2022/07/19 00:21:45;;;;;;;9.70;3.50;;;12.80;99.90;;;;;;4401666;28;657271;-66
2022/07/19 00:24:32;;;;;;;8.15;3.13;;;12.90;99.90;;;;;;4422177;28;656725;-65
2022/07/19 00:27:19;;;;;;;9.50;3.27;;;12.90;99.90;;;;;;4411597;28;656320;-66
2022/07/19 00:30:07;;;;;;;8.90;3.67;;;12.90;99.90;;;;;;4385389;28;656595;-66
2022/07/19 00:32:54;;;;;;;9.48;4.03;;;12.80;99.90;;;;;;4415107;28;656721;-66
2022/07/19 00:35:43;;;;;;;9.37;3.13;;;12.80;99.90;;;;;;4398041;28;656955;-66
2022/07/19 00:38:30;;;;;;;6.73;3.33;;;12.70;99.90;;;;;;4405240;28;656981;-66
2022/07/19 00:41:17;;;;;;;5.97;3.42;;;12.70;99.90;;;;;;4424303;28;656356;-66
2022/07/19 00:44:04;;;;;;;9.80;3.37;;;12.80;99.90;;;;;;4417499;28;657006;-66
2022/07/19 00:46:51;;;;;;;6.60;3.13;;;12.80;99.90;;;;;;4402400;28;656682;-66
2022/07/19 00:49:39;;;;;;;7.13;3.10;;;12.80;99.90;;;;;;4415960;28;657028;-66
2022/07/19 00:52:27;;;;;;;6.10;3.10;;;12.80;99.90;;;;;;4399295;28;656442;-66
2022/07/19 00:55:14;;;;;;;8.83;3.27;;;12.80;99.90;;;;;;4422383;28;657663;-66
2022/07/19 00:58:02;;;;;;;5.13;3.33;;;12.80;99.90;;;;;;4396552;28;656792;-67
2022/07/19 01:00:49;;;;;;;7.73;3.37;;;12.80;99.90;;;;;;4421153;28;656274;-66
2022/07/19 01:03:37;;;;;;;7.93;3.23;;;12.80;99.90;;;;;;4396898;28;656372;-66
2022/07/19 01:06:24;;;;;;;6.07;3.50;;;12.80;99.90;;;;;;4420296;28;657333;-66
2022/07/19 01:09:12;;;;;;;6.63;3.10;;;12.80;99.90;;;;;;4396161;28;656866;-66
2022/07/19 01:11:59;;;;;;;6.03;3.20;;;12.90;99.90;;;;;;4420573;28;656706;-66
2022/07/19 01:14:47;;;;;;;6.53;3.03;;;13.00;99.90;;;;;;4400283;28;656861;-66
2022/07/19 01:17:34;;;;;;;9.67;3.20;;;13.00;99.90;;;;;;4415414;28;656533;-66
2022/07/19 01:20:21;;;;;;;5.68;3.35;;;13.00;99.90;;;;;;4397400;28;656470;-66
2022/07/19 01:23:10;;;;;;;7.90;3.53;;;12.90;99.90;;;;;;4419420;28;657775;-66
2022/07/19 01:25:57;;;;;;;5.67;3.20;;;12.90;99.90;;;;;;4391272;28;657206;-66
2022/07/19 01:28:44;;;;;;;6.55;3.33;;;12.90;99.90;;;;;;4414624;28;656975;-66
2022/07/19 01:31:31;;;;;;;7.17;3.23;;;13.00;99.90;;;;;;4399613;28;656737;-66
2022/07/19 01:34:18;;;;;;;5.40;3.17;;;13.00;99.90;;;;;;4414065;28;657761;-66
2022/07/19 01:37:05;;;;;;;9.07;3.70;;;13.00;99.90;;;;;;4402428;28;656708;-66
2022/07/19 01:39:56;;;;;;;6.77;3.37;;;13.10;99.90;;;;;;4421094;28;657078;-66
2022/07/19 01:42:43;;;;;;;5.33;3.30;;;13.10;99.90;;;;;;4403324;28;656639;-66
2022/07/19 01:45:30;;;;;;;7.93;3.33;;;13.20;99.90;;;;;;4401796;28;656461;-66
2022/07/19 01:48:17;;;;;;;6.13;3.40;;;13.30;99.90;;;;;;4420113;28;657958;-66
2022/07/19 01:51:05;;;;;;;6.67;3.20;;;13.40;99.90;;;;;;4412697;28;656843;-66
2022/07/19 01:53:52;;;;;;;7.83;3.57;;;13.40;99.90;;;;;;4420997;28;656973;-66
2022/07/19 01:56:44;;;;;;;6.93;3.30;;;13.40;99.90;;;;;;4423906;28;657056;-66
2022/07/19 01:59:31;;;;;;;9.90;4.03;;;13.40;99.90;;;;;;4397473;28;656966;-66
2022/07/19 02:02:18;;;;;;;6.80;3.43;;;13.30;99.90;;;;;;4420038;28;657330;-66
2022/07/19 02:05:06;;;;;;;6.03;3.77;;;13.30;99.90;;;;;;4407598;28;656469;-66
2022/07/19 02:07:53;;;;;;;5.53;3.47;;;13.40;99.90;;;;;;4425799;28;656509;-66
2022/07/19 02:10:40;;;;;;;8.37;3.40;;;13.40;99.90;;;;;;4401666;28;657461;-66
2022/07/19 02:13:29;;;;;;;7.90;3.50;;;13.50;99.90;;;;;;4426517;28;657282;-66
2022/07/19 02:16:16;;;;;;;6.30;3.20;;;13.50;99.90;;;;;;4400716;28;656621;-66
2022/07/19 02:19:03;;;;;;;9.67;3.60;;;13.60;99.90;;;;;;4419171;28;657592;-66
2022/07/19 02:21:50;;;;;;;8.40;3.70;;;13.60;99.90;;;;;;4399953;28;656317;-66
2022/07/19 02:24:38;;;;;;;8.53;3.50;;;13.50;99.90;;;;;;4420780;28;657635;-66
2022/07/19 02:27:25;;;;;;;8.37;3.83;;;13.60;99.90;;;;;;4405704;28;656803;-66
2022/07/19 02:30:14;;;;;;;9.07;3.63;;;13.50;99.90;;;;;;4422289;28;655898;-66
2022/07/19 02:33:01;;;;;;;7.50;3.53;;;13.50;99.90;;;;;;4399889;28;657095;-66
2022/07/19 02:35:48;;;;;;;7.50;3.50;;;13.60;99.90;;;;;;4422395;28;657506;-66
2022/07/19 02:38:35;;;;;;;7.03;3.30;;;13.60;99.90;;;;;;4400000;28;656686;-66
2022/07/19 02:41:22;;;;;;;10.80;3.60;;;13.60;99.90;;;;;;4421313;28;656439;-67
2022/07/19 02:44:10;;;;;;;6.87;3.43;;;13.60;99.90;;;;;;4407995;28;657870;-67
2022/07/19 02:46:59;;;;;;;6.47;3.23;;;13.60;99.90;;;;;;4428431;28;657737;-67
2022/07/19 02:49:46;;;;;;;6.57;3.27;;;13.50;99.90;;;;;;4405264;28;656969;-67
2022/07/19 02:52:33;;;;;;;9.77;4.23;;;13.50;99.90;;;;;;4423365;28;657288;-67
2022/07/19 02:55:20;;;;;;;4.35;3.45;;;13.50;99.90;;;;;;4402333;28;657029;-67
2022/07/19 02:58:07;;;;;;;7.60;3.97;;;13.50;99.90;;;;;;4420724;28;657522;-67
2022/07/19 03:00:54;;;;;;;7.40;3.47;;;13.50;99.90;;;;;;4421616;28;656692;-67
2022/07/19 03:03:46;;;;;;;4.70;3.30;;;13.50;99.90;;;;;;4396937;28;657169;-67
2022/07/19 03:06:35;;;;;;;7.07;3.30;;;13.50;99.90;;;;;;4394986;28;657163;-67
2022/07/19 03:09:22;;;;;;;6.57;3.43;;;13.50;99.90;;;;;;4402765;28;658608;-67
2022/07/19 03:12:09;;;;;;;6.17;3.50;;;13.50;99.90;;;;;;4416084;28;657089;-67
2022/07/19 03:14:56;;;;;;;8.83;3.53;;;13.50;99.90;;;;;;4409309;28;657424;-67
2022/07/19 03:17:43;;;;;;;7.33;3.47;;;13.50;99.90;;;;;;4427404;28;657637;-67
2022/07/19 03:20:32;;;;;;;9.80;3.40;;;13.60;99.90;;;;;;4401003;28;656795;-67
2022/07/19 03:23:19;;;;;;;7.93;3.57;;;13.60;99.90;;;;;;4423244;28;656357;-67
2022/07/19 03:26:06;;;;;;;10.30;3.90;;;13.60;99.90;;;;;;4407135;28;656517;-67
2022/07/19 03:28:53;;;;;;;11.00;3.60;;;13.60;99.90;;;;;;4422663;28;657748;-67
2022/07/19 03:31:40;;;;;;;6.83;3.40;;;13.70;99.90;;;;;;4396269;28;657440;-66
2022/07/19 03:34:28;;;;;;;8.70;3.43;;;13.70;99.90;;;;;;4426835;28;657484;-67
2022/07/19 03:37:17;;;;;;;8.70;4.00;;;13.70;99.90;;;;;;4397760;28;657400;-67
2022/07/19 03:40:05;;;;;;;7.60;3.83;;;13.70;99.90;;;;;;4419879;28;656549;-67
2022/07/19 03:42:52;;;;;;;6.97;4.15;;;13.70;99.90;;;;;;4407888;28;656757;-67
2022/07/19 03:45:39;;;;;;;6.27;3.77;;;13.80;99.90;;;;;;4419916;28;657519;-67
2022/07/19 03:48:26;;;;;;;7.60;3.47;;;13.80;99.90;;;;;;4404443;28;656867;-67
2022/07/19 03:51:13;;;;;;;7.40;3.63;;;13.80;99.90;;;;;;4418182;28;657584;-67
2022/07/19 03:54:02;;;;;;;8.83;3.93;;;14.00;99.90;;;;;;4404928;28;657057;-67
2022/07/19 03:56:49;;;;;;;6.03;3.37;;;14.10;99.90;;;;;;4426013;28;656474;-67
2022/07/19 03:59:36;;;;;;;7.67;3.90;;;14.00;99.90;;;;;;4407603;28;656687;-67
2022/07/19 04:02:23;;;;;;;10.13;3.90;;;13.90;99.90;;;;;;4427833;28;656735;-67
2022/07/19 04:05:11;;;;;;;7.78;3.78;;;13.90;99.90;;;;;;4378731;28;657964;-67
2022/07/19 04:07:58;;;;;;;9.23;4.13;;;14.00;99.90;;;;;;4420231;28;656699;-67
2022/07/19 04:10:47;;;;;;;7.57;3.73;;;14.10;99.90;;;;;;4407879;28;656557;-67
2022/07/19 04:13:36;;;;;;;6.07;3.70;;;14.10;99.90;;;;;;4416737;28;657019;-67
2022/07/19 04:16:23;;;;;;;7.30;3.97;;;14.10;99.90;;;;;;4397660;28;657254;-67
2022/07/19 04:19:10;;;;;;;7.77;3.80;;;14.10;99.90;;;;;;4410792;28;657096;-67
2022/07/19 04:21:57;;;;;;;10.10;4.07;;;14.20;99.90;;;;;;4418990;28;658025;-67
2022/07/19 04:24:44;;;;;;;6.83;3.73;;;14.20;99.90;;;;;;4417604;28;657948;-67
2022/07/19 04:27:33;;;;;;;10.53;3.63;;;14.10;99.90;;;;;;4401809;28;656867;-67
2022/07/19 04:30:20;;;;;;;7.32;3.67;;;14.20;99.90;;;;;;4403626;28;657537;-67
2022/07/19 04:33:07;;;;;;;8.87;3.53;;;14.30;99.90;;;;;;4427191;28;656225;-67
2022/07/19 04:35:54;;;;;;;8.03;3.50;;;14.50;99.90;;;;;;4426338;28;656909;-67
2022/07/19 04:38:41;;;;;;;6.50;3.40;;;14.70;99.90;;;;;;4401160;28;656679;-67
2022/07/19 04:41:29;;;;;;;9.10;3.47;;;14.90;99.90;;;;;;4418921;28;657346;-67
2022/07/19 04:44:17;;;;;;;6.23;3.23;;;15.10;99.90;;;;;;4405063;28;656408;-67
2022/07/19 04:47:04;;;;;;;6.53;3.70;;;15.20;99.90;;;;;;4425009;28;656605;-67
2022/07/19 04:49:51;;;;;;;8.30;3.40;;;15.30;99.90;;;;;;4397969;28;656484;-67
2022/07/19 04:52:39;;;;;;;7.17;3.80;;;15.40;99.90;;;;;;4424326;28;657120;-67
2022/07/19 04:55:26;;;;;;;8.17;4.00;;;15.60;99.90;;;;;;4402813;28;656564;-67
2022/07/19 04:58:13;;;;;;;7.20;3.70;;;15.80;99.90;;;;;;4421541;28;656086;-67
2022/07/19 05:01:01;;;;;;;7.50;3.60;;;16.00;99.90;;;;;;4406259;28;656060;-67
2022/07/19 05:03:49;;;;;;;12.20;4.40;;;16.10;99.90;;;;;;4424809;28;656814;-67
2022/07/19 05:06:36;;;;;;;8.20;4.10;;;16.20;99.90;;;;;;4400510;28;657690;-67
2022/07/19 05:09:23;;;;;;;9.13;4.10;;;16.30;99.90;;;;;;4425812;28;657258;-67
2022/07/19 05:12:10;;;;;;;10.35;4.00;;;16.50;99.90;;;;;;4393453;28;656493;-67
2022/07/19 05:14:58;;;;;;;9.17;4.10;;;16.70;99.90;;;;;;4418000;28;659260;-67
2022/07/19 05:17:48;;;;;;;6.73;3.77;;;16.70;99.90;;;;;;4403171;28;656500;-67
2022/07/19 05:20:35;;;;;;;6.93;4.20;;;16.70;99.90;;;;;;4403239;28;657342;-67
2022/07/19 05:23:23;;;;;;;9.23;4.90;;;16.70;99.90;;;;;;4426567;28;656886;-67
2022/07/19 05:26:10;;;;;;;11.83;4.60;;;16.70;99.90;;;;;;4393813;28;657681;-67
2022/07/19 05:28:57;;;;;;;8.93;4.23;;;16.90;99.90;;;;;;4419189;28;658616;-67
2022/07/19 05:31:44;;;;;;;7.63;4.53;;;17.20;99.90;;;;;;4424338;28;656739;-67
2022/07/19 05:34:33;;;;;;;6.70;3.87;;;17.40;99.90;;;;;;4400208;28;657008;-67
2022/07/19 05:37:20;;;;;;;12.77;4.53;;;17.60;99.90;;;;;;4394482;28;656484;-67
2022/07/19 05:40:08;;;;;;;9.97;4.80;;;17.70;99.90;;;;;;4422689;28;657430;-67
2022/07/19 05:42:55;;;;;;;9.37;4.50;;;17.80;99.90;;;;;;4399541;28;656799;-67
2022/07/19 05:45:43;;;;;;;8.57;4.20;;;17.90;99.90;;;;;;4425374;28;657715;-67
2022/07/19 05:48:30;;;;;;;8.83;3.90;;;18.20;99.90;;;;;;4414158;28;656368;-67
2022/07/19 05:51:18;;;;;;;12.73;4.20;;;18.40;99.90;;;;;;4421628;28;656471;-67
2022/07/19 05:54:06;;;;;;;10.90;4.03;;;18.70;99.90;;;;;;4403845;28;657272;-67
2022/07/19 05:56:54;;;;;;;11.63;4.50;;;18.80;99.90;;;;;;4422884;28;658574;-67
2022/07/19 05:59:41;;;;;;;10.20;4.73;;;19.10;99.90;;;;;;4400479;28;658354;-67
2022/07/19 06:02:28;;;;;;;13.77;4.67;;;19.30;99.90;;;;;;4424331;28;658469;-67
2022/07/19 06:05:15;;;;;;;13.77;4.83;;;19.30;99.90;;;;;;4407816;28;658520;-67
2022/07/19 06:08:04;;;;;;;9.53;4.83;;;19.50;99.90;;;;;;4419620;28;657877;-67
2022/07/19 06:10:51;;;;;;;12.97;5.53;;;19.70;99.90;;;;;;4400853;28;656311;-67
2022/07/19 06:13:38;;;;;;;10.57;4.60;;;19.90;99.90;;;;;;4421515;28;657770;-68
2022/07/19 06:16:26;;;;;;;13.70;4.60;;;20.20;99.90;;;;;;4394419;28;658161;-68
2022/07/19 06:19:13;;;;;;;10.00;4.57;;;20.30;98.50;;;;;;4424592;28;657382;-67
2022/07/19 06:22:00;;;;;;;9.73;4.23;;;20.50;96.90;;;;;;4402916;28;658208;-69
2022/07/19 06:24:48;;;;;;;11.00;4.23;;;20.90;94.40;;;;;;4419290;28;656664;-67
2022/07/19 06:27:36;;;;;;;16.17;4.73;;;20.90;93.00;;;;;;4403850;28;657584;-67
2022/07/19 06:30:23;;;;;;;10.77;4.83;;;21.00;89.30;;;;;;4420260;28;658828;-67
2022/07/19 06:33:10;;;;;;;9.67;4.03;;;20.80;92.00;;;;;;4409027;28;657644;-67
2022/07/19 06:35:57;;;;;;;9.07;4.40;;;20.90;90.50;;;;;;4425971;28;656688;-67
2022/07/19 06:38:44;;;;;;;13.83;5.20;;;20.90;90.00;;;;;;4421596;28;656221;-68
2022/07/19 06:41:33;;;;;;;14.27;4.50;;;21.10;88.40;;;;;;4411219;28;657421;-67
2022/07/19 06:44:20;;;;;;;8.97;4.30;;;21.30;90.00;;;;;;4412978;28;658031;-69
2022/07/19 06:47:07;;;;;;;12.45;4.65;;;21.50;86.20;;;;;;4427088;28;656970;-68
2022/07/19 06:49:54;;;;;;;12.87;4.33;;;21.60;85.80;;;;;;4418519;28;657898;-67
2022/07/19 06:52:41;;;;;;;12.23;3.90;;;21.60;87.20;;;;;;4397896;28;658263;-68
2022/07/19 06:55:29;;;;;;;13.90;4.23;;;21.60;90.80;;;;;;4422064;28;658574;-68
2022/07/19 06:58:17;;;;;;;7.63;4.37;;;21.90;89.60;;;;;;4389989;28;658557;-68
2022/07/19 07:01:04;;;;;;;10.00;4.20;;;22.00;85.70;;;;;;4422296;28;656811;-68
2022/07/19 07:03:52;;;;;;;11.93;4.30;;;21.80;86.30;;;;;;4402763;28;657939;-68
2022/07/19 07:06:39;;;;;;;16.67;4.50;;;21.60;91.10;;;;;;4420125;28;657593;-68
2022/07/19 07:09:26;;;;;;;10.63;4.03;;;21.70;89.30;;;;;;4402728;28;657590;-68
2022/07/19 07:12:13;;;;;;;9.83;4.30;;;21.90;88.30;;;;;;4418889;28;658039;-68
2022/07/19 07:15:02;;;;;;;10.23;3.63;;;22.30;89.90;;;;;;4402689;28;657327;-70
2022/07/19 07:17:50;;;;;;;10.40;3.83;;;22.30;81.40;;;;;;4421085;28;657723;-68
2022/07/19 07:20:37;;;;;;;6.53;3.40;;;22.40;79.40;;;;;;4395194;28;659474;-67
2022/07/19 07:23:25;;;;;;;8.50;3.70;;;22.30;84.20;;;;;;4412220;28;656679;-67
2022/07/19 07:26:12;;;;;;;13.10;3.50;;;22.10;85.60;;;;;;4393978;28;656941;-67
2022/07/19 07:28:59;;;;;;;9.50;3.80;;;22.10;84.30;;;;;;4430300;28;657909;-67
2022/07/19 07:31:48;;;;;;;9.60;3.50;;;22.30;82.50;;;;;;4403136;28;657094;-68
2022/07/19 07:34:35;;;;;;;6.60;3.67;;;22.30;80.90;;;;;;4415224;28;656509;-69
2022/07/19 07:37:22;;;;;;;10.90;3.40;;;22.90;81.10;;;;;;4419525;28;656114;-67
2022/07/19 07:40:10;;;;;;;8.23;3.00;;;22.80;77.30;;;;;;4414511;28;657856;-67
2022/07/19 07:42:57;;;;;;;9.70;3.40;;;23.10;75.50;;;;;;4391946;28;657867;-68
2022/07/19 07:45:45;;;;;;;9.03;3.30;;;23.20;79.00;;;;;;4419993;28;656738;-68
2022/07/19 07:48:34;;;;;;;7.17;3.30;;;23.60;77.70;;;;;;4426798;28;657893;-68
2022/07/19 07:51:21;;;;;;;14.87;3.00;;;24.00;77.70;;;;;;4399445;28;656377;-68
2022/07/19 07:54:08;;;;;;;9.83;2.80;;;24.50;73.60;;;;;;4414428;28;657895;-68
2022/07/19 07:56:55;;;;;;;4.83;2.43;;;24.90;72.60;;;;;;4398734;28;656737;-63
2022/07/19 07:59:42;;;;;;;5.93;2.40;;;24.80;64.00;;;;;;4422534;28;656771;-63
2022/07/19 08:02:29;;;;;;;5.43;2.53;;;24.30;64.60;;;;;;4433495;28;656633;-64
2022/07/19 08:05:21;;;;;;;7.33;3.10;;;24.60;69.10;;;;;;4395852;28;657247;-63
2022/07/19 08:08:08;;;;;;;9.43;2.70;;;25.00;65.50;;;;;;4396666;28;657362;-64
2022/07/19 08:10:55;;;;;;;10.73;2.80;;;25.00;64.90;;;;;;4401121;28;656467;-65
2022/07/19 08:13:42;;;;;;;7.50;2.88;;;25.40;63.10;;;;;;4418500;28;657405;-64
2022/07/19 08:16:29;;;;;;;11.40;2.90;;;24.70;63.70;;;;;;4411300;28;656973;-63
2022/07/19 08:19:16;;;;;;;6.30;2.40;;;25.00;65.70;;;;;;4393050;28;658006;-64
2022/07/19 08:22:05;;;;;;;5.70;2.25;;;25.60;61.40;;;;;;4413322;28;656941;-64
2022/07/19 08:24:52;;;;;;;6.68;2.47;;;25.80;59.30;;;;;;4400679;28;657784;-63
2022/07/19 08:27:39;;;;;;;17.25;3.33;;;26.60;59.40;;;;;;4415578;28;656362;-64
2022/07/19 08:30:26;;;;;;;4.47;2.13;;;26.60;60.00;;;;;;4392369;28;659346;-63
2022/07/19 08:33:13;;;;;;;5.97;2.10;;;26.50;57.20;;;;;;4410576;28;658106;-64
2022/07/19 08:36:00;;;;;;;4.32;2.40;;;25.90;56.80;;;;;;4394966;28;656849;-63
2022/07/19 08:38:49;;;;;;;6.35;2.25;;;25.60;58.70;;;;;;4418604;28;657849;-64
2022/07/19 08:41:36;;;;;;;7.38;2.40;;;25.30;62.00;;;;;;4394205;28;657115;-64
2022/07/19 08:44:23;;;;;;;5.40;2.00;;;25.00;64.60;;;;;;4413119;28;657636;-63
2022/07/19 08:47:11;;;;;;;8.23;2.40;;;25.30;65.50;;;;;;4403570;28;656409;-64
2022/07/19 08:50:00;;;;;;;8.10;2.30;;;24.90;67.20;;;;;;4413223;28;657304;-65
2022/07/19 08:52:47;;;;;;;5.00;2.40;;;24.80;64.30;;;;;;4418380;28;656125;-65
2022/07/19 08:55:36;;;;;;;5.43;2.10;;;24.80;63.70;;;;;;4413037;28;656647;-63
2022/07/19 08:58:22;;;;;;;5.93;2.10;;;25.30;61.90;;;;;;4395150;28;658043;-64
2022/07/19 09:01:09;;;;;;;3.83;1.85;;;25.60;64.70;;;;;;4415698;28;656934;-63
2022/07/19 09:04:06;;;;;;;3.17;1.80;;;26.30;57.10;;;;;;4396071;28;656635;-63
2022/07/19 09:06:55;;;;;;;4.22;1.95;;;25.90;56.60;;;;;;4398154;28;656724;-65
2022/07/19 09:09:42;;;;;;;6.45;2.10;;;26.10;59.50;;;;;;4392074;28;657635;-64
2022/07/19 09:12:30;;;;;;;5.90;2.10;;;26.60;55.90;;;;;;4415773;28;656511;-63
2022/07/19 09:15:17;;;;;;;3.38;1.38;;;27.00;56.10;;;;;;4400185;28;656749;-63
2022/07/19 09:18:08;;;;;;;6.80;1.90;;;26.30;54.60;;;;;;4575916;28;657983;-64
2022/07/19 09:20:56;;;;;;;5.40;1.90;;;26.30;54.80;;;;;;4369720;28;656852;-64
2022/07/19 09:23:43;;;;;;;3.72;1.67;;;27.00;52.60;;;;;;4435479;28;658169;-63
2022/07/19 09:26:30;;;;;;;3.97;1.98;;;27.20;54.70;;;;;;4400640;28;656494;-64
2022/07/19 09:29:19;;;;;;;3.67;1.63;;;26.80;52.40;;;;;;4420888;28;658137;-63
2022/07/19 09:32:11;;;;;;;3.08;1.45;;;27.30;51.50;;;;;;4400850;28;656767;-64
2022/07/19 09:35:01;;;;;;;4.57;2.08;;;27.50;50.50;;;;;;4388125;28;657897;-64
2022/07/19 09:37:48;;;;;;;8.43;2.20;;;27.40;51.80;;;;;;4400712;28;656953;-66
2022/07/19 09:40:35;;;;;;;7.15;1.92;;;28.00;55.10;;;;;;4403014;28;656298;-64
2022/07/19 09:43:25;;;;;;;6.13;2.20;;;28.60;50.50;;;;;;4418248;28;656500;-64
2022/07/19 09:49:07;;;;;;;6.30;2.10;;;27.70;50.90;;;;;;4924683;27;162345;-63
2022/07/19 09:51:54;;;;;;;5.18;1.95;;;28.00;49.30;;;;;;4407667;28;651145;-63
2022/07/19 09:54:41;;;;;;;4.43;1.90;;;28.00;50.10;;;;;;4432139;28;649882;-63
2022/07/19 09:57:28;;;;;;;3.88;1.77;;;28.00;49.80;;;;;;4468469;28;650693;-63
2022/07/19 10:00:16;;;;;;;4.75;1.90;;;27.20;44.80;;;;;;4438498;28;650923;-64
2022/07/19 10:03:05;;;;;;;5.03;2.15;;;28.00;48.20;;;;;;4433401;28;650723;-64
2022/07/19 10:05:53;;;;;;;5.45;2.10;;;27.70;45.80;;;;;;4430768;28;652761;-64
2022/07/19 10:08:40;;;;;;;5.88;2.03;;;28.10;47.20;;;;;;4420638;28;651384;-64
2022/07/19 10:11:28;;;;;;;5.35;2.67;;;28.50;44.50;;;;;;4455739;28;653377;-63
2022/07/19 10:14:16;;;;;;;4.40;1.92;;;28.50;47.00;;;;;;4431228;28;651686;-65
2022/07/19 10:17:12;;;;;;;5.60;2.22;;;28.70;45.70;;;;;;4458391;28;652858;-64
2022/07/19 10:19:59;;;;;;;7.03;2.20;;;28.40;47.90;;;;;;4418999;28;652580;-64
2022/07/19 10:22:47;;;;;;;3.50;2.28;;;28.00;47.00;;;;;;4431084;28;653324;-64
2022/07/19 10:25:39;;;;;;;6.50;2.20;;;28.50;46.00;;;;;;4465517;28;652093;-63
2022/07/19 10:28:34;;;;;;;4.18;2.20;;;28.00;46.50;;;;;;4429832;28;652248;-64
2022/07/19 10:31:25;;;;;;;4.30;2.13;;;28.00;47.10;;;;;;4446024;28;652275;-64
2022/07/19 10:34:22;;;;;;;5.05;2.10;;;28.70;47.30;;;;;;4437042;28;653175;-64
2022/07/19 10:37:10;;;;;;;11.20;2.47;;;29.30;46.90;;;;;;4458017;28;652166;-65
2022/07/19 10:39:59;;;;;;;5.45;2.10;;;29.20;44.60;;;;;;4485834;28;654177;-63
2022/07/19 10:43:06;;;;;;;11.15;2.30;;;29.10;48.80;;;;;;4458483;28;652391;-64
2022/07/19 10:46:09;;;;;;;6.65;2.17;;;28.90;47.40;;;;;;4425542;28;653820;-63
2022/07/19 10:48:58;;;;;;;5.82;2.22;;;29.10;48.90;;;;;;4411654;28;652936;-63
2022/07/19 10:51:46;;;;;;;5.43;1.90;;;28.80;47.00;;;;;;4438970;28;652234;-64
2022/07/19 10:54:34;;;;;;;4.25;2.28;;;28.50;46.60;;;;;;4465946;28;653312;-63
2022/07/19 10:57:36;;;;;;;10.82;2.55;;;28.90;46.60;;;;;;4445699;28;652751;-63
2022/07/19 11:00:25;;;;;;;5.32;2.22;;;28.90;45.50;;;;;;4422689;28;654193;-63
2022/07/19 11:03:31;;;;;;;5.65;2.17;;;28.90;43.90;;;;;;4441769;28;653803;-63
2022/07/19 11:06:23;;;;;;;3.72;2.00;;;29.10;44.80;;;;;;4433312;28;652503;-63
2022/07/19 11:09:10;;;;;;;4.55;2.17;;;29.30;43.70;;;;;;4392488;28;652594;-64
2022/07/19 11:11:57;;;;;;;5.53;2.22;;;29.70;44.40;;;;;;4458495;28;653694;-63
2022/07/19 11:14:46;;;;;;;4.75;2.40;;;30.00;47.30;;;;;;4452662;28;652419;-64
2022/07/19 11:17:33;;;;;;;8.02;2.40;;;30.60;43.50;;;;;;4412016;28;652802;-64
2022/07/19 11:20:22;;;;;;;4.88;2.30;;;30.30;43.50;;;;;;4421769;28;652225;-65
2022/07/19 11:23:09;;;;;;;10.20;2.53;;;29.90;45.80;;;;;;4469038;28;652439;-64
2022/07/19 11:26:06;;;;;;;4.30;1.95;;;30.50;45.00;;;;;;4441473;28;654141;-64
2022/07/19 11:28:53;;;;;;;5.50;2.20;;;30.70;43.40;;;;;;4448132;28;653032;-63
2022/07/19 11:31:47;;;;;;;3.83;2.28;;;30.60;42.90;;;;;;4451692;28;652727;-63
2022/07/19 11:34:34;;;;;;;5.10;2.10;;;30.80;42.40;;;;;;4423661;28;652547;-63
2022/07/19 11:37:24;;;;;;;6.20;2.30;;;30.90;40.70;;;;;;4430986;28;652584;-63
2022/07/19 11:40:12;;;;;;;5.32;2.67;;;30.90;44.40;;;;;;4431435;28;652470;-63
2022/07/19 11:42:59;;;;;;;5.35;2.22;;;30.40;44.00;;;;;;4427595;28;652353;-64
2022/07/19 11:45:48;;;;;;;6.32;2.63;;;30.40;43.10;;;;;;4436612;28;652326;-65
2022/07/19 11:48:37;;;;;;;5.07;2.20;;;30.20;42.10;;;;;;4458142;28;652438;-64
2022/07/19 11:51:24;;;;;;;7.25;2.60;;;30.20;48.90;;;;;;4465401;28;652978;-64
2022/07/19 11:54:12;;;;;;;5.85;2.40;;;30.20;46.10;;;;;;4449727;28;652491;-63
2022/07/19 11:56:59;;;;;;;4.65;2.13;;;30.50;47.10;;;;;;4463545;28;652593;-63
2022/07/19 11:59:46;;;;;;;7.88;2.80;;;30.80;44.80;;;;;;4433857;28;652601;-63
2022/07/19 12:02:51;;;;;;;4.22;2.20;;;30.00;43.50;;;;;;4468509;28;654098;-64
2022/07/19 12:05:40;;;;;;;4.78;2.33;;;30.60;43.60;;;;;;4436056;28;653700;-63
2022/07/19 12:08:35;;;;;;;4.05;2.45;;;30.70;43.80;;;;;;4448641;28;653095;-63
2022/07/19 12:11:23;;;;;;;7.07;2.53;;;30.50;46.00;;;;;;4419460;28;653796;-63
2022/07/19 12:14:23;;;;;;;6.22;2.33;;;30.90;45.40;;;;;;4398033;28;652600;-64
2022/07/19 12:17:11;;;;;;;4.22;2.20;;;30.50;42.70;;;;;;4418951;28;652320;-64
2022/07/19 12:20:08;;;;;;;7.35;2.20;;;31.10;44.00;;;;;;4467415;28;653192;-64
2022/07/19 12:22:57;;;;;;;7.38;2.67;;;31.00;42.10;;;;;;4428147;28;652858;-64
2022/07/19 12:25:44;;;;;;;7.13;2.47;;;30.70;45.90;;;;;;4463071;28;654515;-63
2022/07/19 12:28:31;;;;;;;6.75;2.40;;;31.30;47.50;;;;;;4450350;28;652354;-64
2022/07/19 12:31:18;;;;;;;4.10;1.83;;;31.00;44.60;;;;;;4444190;28;654146;-63
2022/07/19 12:34:05;;;;;;;4.72;2.10;;;31.20;43.60;;;;;;4433006;28;652893;-65
2022/07/19 12:36:53;;;;;;;6.07;2.83;;;31.50;45.50;;;;;;4445253;28;654464;-63
2022/07/19 12:39:59;;;;;;;12.35;2.55;;;31.60;41.30;;;;;;4442394;28;654385;-65
2022/07/19 12:42:48;;;;;;;4.82;2.53;;;31.50;44.00;;;;;;4423306;28;654888;-63
2022/07/19 12:45:39;;;;;;;9.55;2.63;;;30.90;44.10;;;;;;4428315;28;653318;-63
2022/07/19 12:48:26;;;;;;;8.88;2.60;;;31.30;43.40;;;;;;4433809;28;654037;-63
2022/07/19 12:51:13;;;;;;;4.47;2.22;;;30.80;41.30;;;;;;4449820;28;654093;-63
2022/07/19 12:54:00;;;;;;;5.17;2.40;;;30.60;44.00;;;;;;4421388;28;653490;-65
2022/07/19 12:56:49;;;;;;;5.63;2.17;;;31.50;44.20;;;;;;4452550;28;654501;-64
2022/07/19 12:59:42;;;;;;;4.90;2.45;;;31.40;41.20;;;;;;4420391;28;655305;-63
2022/07/19 13:02:29;;;;;;;5.75;2.35;;;30.00;44.10;;;;;;4420725;28;654011;-62
2022/07/19 13:05:16;;;;;;;6.07;2.67;;;30.20;42.20;;;;;;4423697;28;653216;-63
2022/07/19 13:08:03;;;;;;;8.50;2.20;;;30.50;43.10;;;;;;4445492;28;654542;-63
2022/07/19 13:10:51;;;;;;;2.55;1.67;;;30.40;42.60;;;;;;4415382;28;653508;-63
2022/07/19 13:13:39;;;;;;;7.47;2.40;;;29.60;43.70;;;;;;4452598;28;655036;-63
2022/07/19 13:16:26;;;;;;;4.70;2.30;;;29.90;44.50;;;;;;4424239;28;653933;-63
2022/07/19 13:19:14;;;;;;;6.10;2.28;;;29.80;44.50;;;;;;4445037;28;653943;-65
2022/07/19 13:22:01;;;;;;;6.35;2.40;;;30.00;45.60;;;;;;4416319;28;653682;-63
2022/07/19 13:24:48;;;;;;;5.53;2.10;;;31.00;44.50;;;;;;4434838;28;653694;-63
2022/07/19 13:27:35;;;;;;;8.27;2.25;;;31.70;40.60;;;;;;4416903;28;653279;-64
2022/07/19 13:30:24;;;;;;;9.75;2.60;;;30.10;41.80;;;;;;4453065;28;653551;-64
2022/07/19 13:33:11;;;;;;;7.18;2.15;;;30.30;43.80;;;;;;4425986;28;653249;-64
2022/07/19 13:35:58;;;;;;;7.43;2.53;;;30.90;46.70;;;;;;4438602;28;654417;-63
2022/07/19 13:38:47;;;;;;;4.70;2.30;;;30.30;42.70;;;;;;4435139;28;653650;-64
2022/07/19 13:41:36;;;;;;;6.65;2.50;;;30.70;42.20;;;;;;4444716;28;653923;-63
2022/07/19 13:44:23;;;;;;;4.63;2.08;;;30.20;41.60;;;;;;4447401;28;654628;-63
2022/07/19 13:47:12;;;;;;;8.05;2.40;;;30.60;42.20;;;;;;4431681;28;654093;-64
2022/07/19 13:49:59;;;;;;;6.18;2.38;;;30.50;41.30;;;;;;4452382;28;653230;-63
2022/07/19 13:52:46;;;;;;;6.43;2.13;;;30.50;41.90;;;;;;4434480;28;654528;-65
2022/07/19 13:55:33;;;;;;;8.27;2.60;;;30.60;41.70;;;;;;4468657;28;654542;-63
2022/07/19 13:58:20;;;;;;;4.70;2.20;;;30.50;41.80;;;;;;4430409;28;653433;-64
2022/07/19 14:01:07;;;;;;;7.30;2.20;;;30.60;42.80;;;;;;4452192;28;653454;-63
2022/07/19 14:03:56;;;;;;;8.77;2.40;;;31.10;41.60;;;;;;4453711;28;654141;-62
2022/07/19 14:06:43;;;;;;;3.97;2.17;;;30.60;41.50;;;;;;4433820;28;654518;-63
2022/07/19 14:09:30;;;;;;;7.85;2.22;;;31.30;41.50;;;;;;4447300;28;653218;-64
2022/07/19 14:12:18;;;;;;;5.85;2.50;;;31.20;43.70;;;;;;4465308;28;654261;-64
2022/07/19 14:15:06;;;;;;;4.20;2.08;;;31.30;41.80;;;;;;4454921;28;653221;-64
2022/07/19 14:17:54;;;;;;;8.77;2.50;;;31.50;43.30;;;;;;4466986;28;655003;-64
2022/07/19 14:20:43;;;;;;;4.15;2.45;;;31.60;41.40;;;;;;4426261;28;653339;-63
2022/07/19 14:23:30;;;;;;;6.65;2.20;;;31.90;41.40;;;;;;4441471;28;653240;-65
2022/07/19 14:26:17;;;;;;;7.35;2.10;;;32.70;40.60;;;;;;4454861;28;653209;-64